Time;durP1;ratioP1;P1;durP2;ratioP2;P2;SDS_P1;SDS_P2;PMS_P1;PMS_P2;Temp;Humidity;BMP_temperature;BMP_pressure;BME280_temperature;BME280_humidity;BME280_pressure;Samples;Min_cycle;Max_cycle;Signal;HPM_P1;HPM_P2
2021/07/01 00:02:00;;;;;;;8.05;4.90;;;14.30;99.90;;;;;;5054163;28;20469;-86
2021/07/01 00:04:28;;;;;;;8.18;4.57;;;14.40;99.90;;;;;;5063587;28;20440;-87
2021/07/01 00:06:54;;;;;;;6.47;4.85;;;14.50;99.90;;;;;;5061959;28;20391;-87
2021/07/01 00:09:23;;;;;;;7.60;4.90;;;14.60;99.90;;;;;;5056543;28;20400;-86
2021/07/01 00:11:53;;;;;;;8.15;5.35;;;14.60;99.90;;;;;;5064219;28;20428;-87
2021/07/01 00:14:21;;;;;;;6.18;4.90;;;14.50;99.90;;;;;;5068023;28;20847;-88
2021/07/01 00:16:53;;;;;;;6.80;4.95;;;14.60;99.90;;;;;;5069013;28;20416;-88
2021/07/01 00:19:22;;;;;;;6.25;4.22;;;14.80;99.90;;;;;;5059865;28;20455;-91
2021/07/01 00:21:51;;;;;;;4.78;4.30;;;14.80;99.90;;;;;;5054486;28;20399;-90
2021/07/01 00:24:18;;;;;;;5.85;4.22;;;14.90;99.90;;;;;;5054421;28;20384;-91
2021/07/01 00:26:45;;;;;;;8.05;3.70;;;15.00;99.90;;;;;;5063509;28;20394;-90
2021/07/01 00:29:12;;;;;;;6.15;3.85;;;15.00;99.90;;;;;;5075071;28;20787;-91
2021/07/01 00:31:40;;;;;;;6.13;3.58;;;14.90;99.90;;;;;;5073770;28;20891;-91
2021/07/01 00:34:07;;;;;;;7.57;3.70;;;14.80;99.90;;;;;;5064909;28;20444;-90
2021/07/01 00:36:34;;;;;;;6.10;3.40;;;14.90;99.90;;;;;;5062778;28;20406;-91
2021/07/01 00:39:01;;;;;;;5.55;3.30;;;14.90;99.90;;;;;;5057016;28;20405;-90
2021/07/01 00:41:29;;;;;;;6.50;3.20;;;14.90;99.90;;;;;;5060244;28;20419;-92
2021/07/01 00:43:56;;;;;;;6.10;3.03;;;14.90;99.90;;;;;;5053534;28;20388;-90
2021/07/01 00:46:23;;;;;;;6.90;2.50;;;14.80;99.90;;;;;;5065696;28;20491;-89
2021/07/01 00:48:49;;;;;;;5.03;2.22;;;14.70;99.90;;;;;;5061398;28;20392;-90
2021/07/01 00:51:17;;;;;;;6.72;2.88;;;14.60;99.90;;;;;;5054848;28;20393;-92
2021/07/01 00:53:46;;;;;;;7.47;2.53;;;14.70;99.90;;;;;;5063234;28;20446;-90
2021/07/01 00:56:15;;;;;;;4.53;2.60;;;14.70;99.90;;;;;;5057937;28;20459;-89
2021/07/01 00:58:42;;;;;;;3.90;2.33;;;14.80;99.90;;;;;;5070676;28;20409;-91
2021/07/01 01:01:09;;;;;;;4.90;2.40;;;15.00;99.90;;;;;;5054721;28;20375;-88
2021/07/01 01:03:39;;;;;;;6.70;2.10;;;15.10;99.90;;;;;;5063667;28;20798;-86
2021/07/01 01:06:08;;;;;;;6.43;1.70;;;15.00;99.90;;;;;;5053843;28;20798;-90
2021/07/01 01:08:35;;;;;;;4.38;1.80;;;14.90;99.90;;;;;;5061868;28;20787;-87
2021/07/01 01:11:02;;;;;;;4.45;1.80;;;14.90;99.90;;;;;;5058371;28;20390;-92
2021/07/01 01:13:29;;;;;;;6.80;1.98;;;14.80;99.90;;;;;;5059211;28;20434;-90
2021/07/01 01:16:02;;;;;;;5.53;1.95;;;14.80;99.90;;;;;;5052297;28;20384;-90
2021/07/01 01:18:30;;;;;;;5.47;1.70;;;14.80;99.90;;;;;;5051659;28;20443;-90
2021/07/01 01:20:59;;;;;;;4.38;1.88;;;14.90;99.90;;;;;;5056958;28;20398;-89
2021/07/01 01:23:27;;;;;;;5.80;2.03;;;14.80;99.90;;;;;;5061169;28;20474;-90
2021/07/01 01:25:57;;;;;;;4.57;2.03;;;14.70;99.90;;;;;;5060912;28;20389;-89
2021/07/01 01:28:25;;;;;;;3.80;1.67;;;14.70;99.90;;;;;;5059010;28;20380;-90
2021/07/01 01:30:53;;;;;;;5.97;1.90;;;14.80;99.90;;;;;;5058311;28;20422;-88
2021/07/01 01:33:20;;;;;;;4.17;1.70;;;14.90;99.90;;;;;;5066293;28;20769;-91
2021/07/01 01:35:47;;;;;;;7.68;1.75;;;14.90;99.90;;;;;;5051846;28;20384;-85
2021/07/01 01:38:16;;;;;;;4.18;1.30;;;14.90;99.90;;;;;;5068909;28;20418;-88
2021/07/01 01:40:47;;;;;;;5.55;1.50;;;14.90;99.90;;;;;;5052433;28;20414;-91
2021/07/01 01:43:21;;;;;;;3.30;1.38;;;14.90;99.90;;;;;;5053601;28;20912;-89
2021/07/01 01:45:49;;;;;;;5.97;1.90;;;15.10;99.90;;;;;;5060271;28;20389;-90
2021/07/01 01:48:16;;;;;;;8.15;1.67;;;15.20;99.90;;;;;;5059777;28;20457;-89
2021/07/01 01:50:44;;;;;;;3.80;1.35;;;15.30;99.90;;;;;;5051800;28;20394;-85
2021/07/01 01:53:12;;;;;;;2.42;1.67;;;15.30;99.90;;;;;;5051071;28;20382;-86
2021/07/01 01:55:40;;;;;;;4.05;1.60;;;15.30;99.90;;;;;;5051096;28;20383;-86
2021/07/01 01:58:08;;;;;;;3.70;1.70;;;15.40;99.90;;;;;;5060653;28;20404;-88
2021/07/01 02:00:35;;;;;;;6.28;2.80;;;15.50;99.90;;;;;;5062254;28;20429;-87
2021/07/01 02:03:03;;;;;;;9.37;6.80;;;15.50;99.90;;;;;;5064688;28;20418;-86
2021/07/01 02:05:31;;;;;;;9.30;6.03;;;15.50;99.90;;;;;;5068695;28;20410;-85
2021/07/01 02:07:57;;;;;;;5.93;5.30;;;15.50;99.90;;;;;;5067385;28;20499;-85
2021/07/01 02:10:27;;;;;;;7.40;5.70;;;15.60;99.90;;;;;;5069218;28;20417;-86
2021/07/01 02:12:55;;;;;;;6.35;5.53;;;15.70;99.90;;;;;;5052448;28;21160;-87
2021/07/01 02:15:24;;;;;;;7.43;4.55;;;15.60;99.90;;;;;;5060140;28;20457;-86
2021/07/01 02:17:52;;;;;;;8.63;4.90;;;15.50;99.90;;;;;;5064482;28;20460;-85
2021/07/01 02:20:22;;;;;;;6.77;5.63;;;15.40;99.90;;;;;;5059737;28;20490;-85
2021/07/01 02:22:49;;;;;;;9.00;6.45;;;15.30;99.90;;;;;;5065435;28;20387;-84
2021/07/01 02:25:17;;;;;;;6.50;5.85;;;15.30;99.90;;;;;;5073367;28;20385;-85
2021/07/01 02:27:45;;;;;;;8.93;6.00;;;15.40;99.90;;;;;;5068405;28;20390;-85
2021/07/01 02:30:14;;;;;;;7.95;6.22;;;15.40;99.90;;;;;;5052132;28;20374;-86
2021/07/01 02:32:41;;;;;;;6.80;5.65;;;15.40;99.90;;;;;;5056443;28;22137;-86
2021/07/01 02:35:09;;;;;;;8.23;5.50;;;15.60;99.90;;;;;;5068199;28;20417;-85
2021/07/01 02:37:41;;;;;;;6.60;5.30;;;15.70;99.90;;;;;;5063854;28;20848;-86
2021/07/01 02:40:12;;;;;;;6.90;5.32;;;15.70;99.90;;;;;;5056805;28;20379;-84
2021/07/01 02:42:40;;;;;;;9.23;5.57;;;15.60;99.90;;;;;;5057052;28;20906;-85
2021/07/01 02:45:10;;;;;;;7.05;5.40;;;15.60;99.90;;;;;;5052778;28;20387;-83
2021/07/01 02:47:37;;;;;;;9.77;5.00;;;15.70;99.90;;;;;;5060900;28;20390;-84
2021/07/01 02:50:06;;;;;;;8.18;5.10;;;15.80;99.90;;;;;;5058012;28;20374;-84
2021/07/01 02:52:33;;;;;;;7.15;5.22;;;15.80;99.90;;;;;;5066150;28;20857;-83
2021/07/01 02:55:00;;;;;;;6.03;5.07;;;15.80;99.90;;;;;;5072781;28;20410;-85
2021/07/01 02:57:27;;;;;;;6.35;5.28;;;15.80;99.90;;;;;;5072818;28;20433;-85
2021/07/01 02:59:54;;;;;;;8.13;5.10;;;15.70;99.90;;;;;;5071319;28;20382;-85
2021/07/01 03:02:21;;;;;;;7.75;5.70;;;15.80;99.90;;;;;;5068905;28;20390;-83
2021/07/01 03:04:48;;;;;;;7.35;5.40;;;15.80;99.90;;;;;;5072670;28;20430;-86
2021/07/01 03:07:15;;;;;;;7.40;4.70;;;15.80;99.90;;;;;;5056696;28;20476;-85
2021/07/01 03:09:42;;;;;;;7.10;4.22;;;15.70;99.90;;;;;;5054299;28;20380;-84
2021/07/01 03:12:09;;;;;;;4.63;3.30;;;15.60;99.90;;;;;;5072837;28;20390;-85
2021/07/01 03:14:36;;;;;;;4.43;3.13;;;15.60;99.90;;;;;;5072511;28;20865;-83
2021/07/01 03:17:04;;;;;;;5.32;3.05;;;15.60;99.90;;;;;;5072346;28;20809;-86
2021/07/01 03:19:31;;;;;;;3.95;3.28;;;15.60;99.90;;;;;;5072563;28;20370;-86
2021/07/01 03:21:58;;;;;;;8.48;3.95;;;15.60;99.90;;;;;;5072574;28;20381;-86
2021/07/01 03:24:25;;;;;;;8.55;5.18;;;15.50;99.90;;;;;;5072521;28;20471;-85
2021/07/01 03:26:53;;;;;;;6.75;5.30;;;15.60;99.90;;;;;;5072347;28;20475;-84
2021/07/01 03:29:20;;;;;;;9.15;5.05;;;15.60;99.90;;;;;;5072533;28;20856;-85
2021/07/01 03:31:47;;;;;;;8.68;5.57;;;15.50;99.90;;;;;;5072497;28;20983;-86
2021/07/01 03:34:14;;;;;;;5.40;4.88;;;15.60;99.90;;;;;;5057811;28;20464;-82
2021/07/01 03:36:41;;;;;;;6.75;5.13;;;15.70;99.90;;;;;;5051926;28;20418;-82
2021/07/01 03:39:08;;;;;;;8.43;5.32;;;15.80;99.90;;;;;;5051908;28;20392;-83
2021/07/01 03:41:35;;;;;;;5.55;4.85;;;15.90;99.90;;;;;;5051920;28;20394;-84
2021/07/01 03:44:02;;;;;;;6.37;4.47;;;15.90;99.90;;;;;;5053727;28;20393;-84
2021/07/01 03:46:29;;;;;;;5.95;4.30;;;15.90;99.90;;;;;;5071572;28;20366;-84
2021/07/01 03:48:56;;;;;;;8.75;4.97;;;16.00;99.90;;;;;;5056544;28;20382;-83
2021/07/01 03:51:23;;;;;;;4.93;4.40;;;16.10;99.90;;;;;;5071983;28;20921;-84
2021/07/01 03:53:50;;;;;;;5.95;4.40;;;16.10;99.90;;;;;;5063197;28;20402;-83
2021/07/01 03:56:17;;;;;;;5.60;4.70;;;16.00;99.90;;;;;;5070751;28;20643;-84
2021/07/01 03:58:44;;;;;;;7.78;4.80;;;16.00;99.90;;;;;;5056554;28;20390;-83
2021/07/01 04:01:11;;;;;;;7.72;4.80;;;16.00;99.90;;;;;;5069705;28;20872;-84
2021/07/01 04:03:38;;;;;;;6.32;4.20;;;16.00;99.90;;;;;;5056980;28;20384;-84
2021/07/01 04:06:04;;;;;;;5.10;4.25;;;16.00;99.90;;;;;;5060568;28;20388;-84
2021/07/01 04:08:31;;;;;;;5.57;4.22;;;16.00;99.90;;;;;;5063969;28;20435;-83
2021/07/01 04:10:58;;;;;;;5.67;4.07;;;15.90;99.90;;;;;;5060530;28;20463;-83
2021/07/01 04:13:25;;;;;;;4.57;4.10;;;15.90;99.90;;;;;;5057350;28;20394;-83
2021/07/01 04:15:52;;;;;;;4.85;4.20;;;15.90;99.90;;;;;;5055389;28;20392;-83
2021/07/01 04:18:20;;;;;;;4.32;2.72;;;15.90;99.90;;;;;;5052267;28;20416;-83
2021/07/01 04:20:46;;;;;;;3.20;1.98;;;15.90;99.90;;;;;;5088968;28;20874;-84
2021/07/01 04:23:13;;;;;;;3.65;1.70;;;15.90;99.90;;;;;;5071095;28;20392;-85
2021/07/01 04:25:40;;;;;;;3.67;1.67;;;15.90;99.90;;;;;;5059113;28;20888;-84
2021/07/01 04:28:07;;;;;;;4.03;1.48;;;15.80;99.90;;;;;;5057314;28;20471;-84
2021/07/01 04:30:34;;;;;;;2.40;1.10;;;15.80;99.90;;;;;;5059214;28;20837;-83
2021/07/01 04:33:01;;;;;;;3.20;1.20;;;15.70;99.90;;;;;;5061922;28;20766;-86
2021/07/01 04:35:28;;;;;;;2.70;0.90;;;15.70;99.90;;;;;;5052633;28;20470;-87
2021/07/01 04:37:55;;;;;;;3.28;0.98;;;15.70;99.90;;;;;;5072388;28;20401;-86
2021/07/01 04:40:22;;;;;;;2.42;1.05;;;15.70;99.90;;;;;;5063194;28;20380;-86
2021/07/01 04:42:49;;;;;;;2.13;1.10;;;15.60;99.90;;;;;;5053078;28;20437;-87
2021/07/01 04:45:16;;;;;;;2.20;1.30;;;15.60;99.90;;;;;;5053946;28;20828;-86
2021/07/01 04:47:43;;;;;;;2.20;1.20;;;15.60;99.90;;;;;;5068390;28;20386;-88
2021/07/01 04:50:11;;;;;;;2.65;1.10;;;15.60;99.90;;;;;;5064876;28;20372;-85
2021/07/01 04:52:38;;;;;;;3.90;1.50;;;15.50;99.90;;;;;;5050609;28;20746;-84
2021/07/01 04:55:06;;;;;;;3.33;1.30;;;15.50;99.90;;;;;;5051008;28;20372;-85
2021/07/01 04:57:33;;;;;;;2.20;1.30;;;15.50;99.90;;;;;;5050752;28;20487;-84
2021/07/01 05:00:00;;;;;;;5.50;1.60;;;15.50;99.90;;;;;;5050336;28;20384;-83
2021/07/01 05:02:27;;;;;;;3.75;1.75;;;15.50;99.90;;;;;;5051561;28;20383;-87
2021/07/01 05:04:54;;;;;;;2.00;1.45;;;15.50;99.90;;;;;;5051438;28;20376;-84
2021/07/01 05:07:21;;;;;;;2.03;1.30;;;15.50;99.90;;;;;;5058688;28;20391;-87
2021/07/01 05:09:47;;;;;;;1.88;1.20;;;15.50;99.90;;;;;;5049755;28;20372;-86
2021/07/01 05:12:14;;;;;;;5.68;5.00;;;15.50;99.90;;;;;;5054945;28;20373;-86
2021/07/01 05:14:42;;;;;;;11.43;7.60;;;15.50;99.90;;;;;;5057913;28;20440;-86
2021/07/01 05:17:09;;;;;;;13.20;8.27;;;15.60;99.90;;;;;;5058403;28;21522;-85
2021/07/01 05:19:36;;;;;;;17.25;10.38;;;15.50;99.90;;;;;;5057259;28;20376;-86
2021/07/01 05:22:04;;;;;;;13.07;10.00;;;15.50;99.90;;;;;;5051884;28;20790;-83
2021/07/01 05:24:31;;;;;;;15.82;11.02;;;15.50;99.90;;;;;;5056399;28;20387;-84
2021/07/01 05:26:58;;;;;;;14.90;11.43;;;15.50;99.90;;;;;;5057903;28;20401;-83
2021/07/01 05:29:25;;;;;;;15.90;12.50;;;15.40;99.90;;;;;;5056032;28;20453;-84
2021/07/01 05:31:52;;;;;;;20.30;13.35;;;15.40;99.90;;;;;;5052575;28;20901;-83
2021/07/01 05:34:19;;;;;;;17.60;13.00;;;15.30;99.90;;;;;;5061683;28;20482;-83
2021/07/01 05:36:46;;;;;;;23.73;13.45;;;15.20;99.90;;;;;;5060921;28;20812;-85
2021/07/01 05:39:17;;;;;;;22.13;14.00;;;15.10;99.90;;;;;;5068143;28;20402;-86
2021/07/01 05:41:44;;;;;;;20.75;13.73;;;15.00;99.90;;;;;;5060536;28;20397;-85
2021/07/01 05:44:11;;;;;;;7.57;4.43;;;14.90;99.90;;;;;;5060828;28;20767;-86
2021/07/01 05:46:38;;;;;;;8.20;2.97;;;14.80;99.90;;;;;;5054219;28;20898;-87
2021/07/01 05:49:05;;;;;;;9.35;3.20;;;14.70;99.90;;;;;;5049628;28;20425;-85
2021/07/01 05:51:34;;;;;;;7.43;2.67;;;14.60;99.90;;;;;;5055344;28;20480;-85
2021/07/01 05:56:37;;;;;;;6.50;2.40;;;14.40;99.90;;;;;;5052695;28;20386;-82
2021/07/01 05:59:06;;;;;;;9.15;2.47;;;14.40;99.90;;;;;;5063487;28;20397;-84
2021/07/01 06:01:33;;;;;;;9.63;2.87;;;14.30;99.90;;;;;;5049916;28;20496;-83
2021/07/01 06:04:03;;;;;;;10.10;2.90;;;14.20;99.90;;;;;;5056794;28;20406;-83
2021/07/01 06:06:31;;;;;;;8.82;3.03;;;14.20;99.90;;;;;;5059762;28;20423;-84
2021/07/01 06:08:59;;;;;;;8.02;2.83;;;14.10;99.90;;;;;;5054904;28;20414;-84
2021/07/01 06:11:27;;;;;;;8.35;3.17;;;14.10;99.90;;;;;;5064891;28;20872;-85
2021/07/01 06:13:55;;;;;;;10.63;3.38;;;14.10;99.90;;;;;;5062516;28;21023;-85
2021/07/01 06:16:26;;;;;;;8.65;3.03;;;14.00;99.90;;;;;;5055227;28;20395;-84
2021/07/01 06:18:54;;;;;;;8.77;2.85;;;14.00;99.90;;;;;;5062890;28;20758;-83
2021/07/01 06:21:23;;;;;;;12.17;3.40;;;14.00;99.90;;;;;;5053514;28;20496;-86
2021/07/01 06:23:50;;;;;;;12.27;3.15;;;13.90;99.90;;;;;;5055657;28;20404;-87
2021/07/01 06:26:26;;;;;;;10.90;3.07;;;13.90;99.90;;;;;;5064339;28;20980;-86
2021/07/01 06:28:54;;;;;;;12.63;3.78;;;13.90;99.90;;;;;;5063988;28;20411;-85
2021/07/01 06:31:21;;;;;;;10.75;3.05;;;13.80;99.90;;;;;;5057115;28;20392;-85
2021/07/01 06:33:49;;;;;;;15.75;6.97;;;13.80;99.90;;;;;;5049481;28;20490;-84
2021/07/01 06:36:19;;;;;;;13.98;5.15;;;13.80;99.90;;;;;;5050557;28;20407;-84
2021/07/01 06:38:50;;;;;;;15.05;4.65;;;13.80;99.90;;;;;;5049459;28;20436;-86
2021/07/01 06:41:18;;;;;;;43.80;32.93;;;13.80;99.90;;;;;;5049579;28;20384;-87
2021/07/01 06:43:49;;;;;;;27.47;16.57;;;13.70;99.90;;;;;;5050168;28;20387;-85
2021/07/01 06:46:17;;;;;;;36.75;26.00;;;13.70;99.90;;;;;;5052226;28;20398;-86
2021/07/01 06:48:47;;;;;;;22.17;11.95;;;13.70;99.90;;;;;;5050003;28;20771;-86
2021/07/01 06:51:15;;;;;;;27.05;17.75;;;13.70;99.90;;;;;;5056303;28;20396;-85
2021/07/01 06:53:44;;;;;;;18.15;8.50;;;13.70;99.90;;;;;;5052046;28;20430;-87
2021/07/01 06:56:12;;;;;;;17.60;11.60;;;13.60;99.90;;;;;;5052681;28;20410;-84
2021/07/01 06:58:44;;;;;;;23.98;16.33;;;13.60;99.90;;;;;;5058723;28;20774;-84
2021/07/01 07:01:11;;;;;;;24.75;16.70;;;13.60;99.90;;;;;;5055317;28;20419;-84
2021/07/01 07:03:39;;;;;;;13.32;4.57;;;13.60;99.90;;;;;;5052431;28;20775;-84
2021/07/01 07:06:06;;;;;;;14.65;6.78;;;13.60;99.90;;;;;;5049761;28;20472;-84
2021/07/01 07:08:33;;;;;;;17.13;6.40;;;13.40;99.90;;;;;;5061780;28;20390;-85
2021/07/01 07:11:01;;;;;;;14.70;4.10;;;13.40;99.90;;;;;;5056492;28;20399;-86
2021/07/01 07:13:28;;;;;;;15.32;4.15;;;13.30;99.90;;;;;;5057529;28;20394;-85
2021/07/01 07:15:58;;;;;;;11.70;3.88;;;13.30;99.90;;;;;;5058752;28;20393;-85
2021/07/01 07:18:33;;;;;;;19.95;5.40;;;13.30;99.90;;;;;;5052048;28;20406;-84
2021/07/01 07:21:19;;;;;;;13.52;4.75;;;13.30;99.90;;;;;;5054256;28;20436;-83
2021/07/01 07:23:53;;;;;;;14.65;4.80;;;13.30;99.90;;;;;;5056659;28;20923;-84
2021/07/01 07:26:25;;;;;;;17.77;6.68;;;13.30;99.90;;;;;;5054082;28;20390;-85
2021/07/01 07:28:55;;;;;;;16.98;5.97;;;13.30;99.90;;;;;;5048425;28;20818;-82
2021/07/01 07:31:31;;;;;;;16.08;4.80;;;13.40;99.90;;;;;;5067814;28;20386;-83
2021/07/01 07:34:01;;;;;;;17.05;5.35;;;13.40;99.90;;;;;;5053870;28;20406;-83
2021/07/01 07:36:28;;;;;;;18.17;5.07;;;13.40;99.90;;;;;;5064741;28;20430;-83
2021/07/01 07:38:56;;;;;;;21.60;5.50;;;13.40;99.90;;;;;;5050367;28;20471;-82
2021/07/01 07:41:24;;;;;;;15.70;5.78;;;13.50;99.90;;;;;;5055627;28;20390;-81
2021/07/01 07:43:54;;;;;;;18.17;6.00;;;13.50;99.90;;;;;;5062393;28;20475;-86
2021/07/01 07:46:23;;;;;;;17.38;6.53;;;13.50;99.90;;;;;;5064436;28;20434;-83
2021/07/01 07:48:50;;;;;;;18.13;5.82;;;13.50;99.90;;;;;;5061433;28;20392;-83
2021/07/01 07:51:21;;;;;;;19.77;6.13;;;13.50;99.90;;;;;;5061164;28;20882;-83
2021/07/01 07:53:52;;;;;;;19.48;6.30;;;13.50;99.90;;;;;;5051968;28;20494;-84
2021/07/01 07:56:26;;;;;;;15.73;6.22;;;13.50;99.90;;;;;;5063595;28;20390;-84
2021/07/01 07:58:55;;;;;;;18.33;6.95;;;13.50;99.90;;;;;;5057374;28;20400;-84
2021/07/01 08:01:23;;;;;;;15.82;7.13;;;13.50;99.90;;;;;;5057235;28;20437;-83
2021/07/01 08:03:54;;;;;;;17.98;6.25;;;13.50;99.90;;;;;;5055660;28;20392;-84
2021/07/01 08:06:26;;;;;;;15.93;6.75;;;13.50;99.90;;;;;;5065281;28;20381;-83
2021/07/01 08:08:53;;;;;;;17.42;6.57;;;13.50;99.90;;;;;;5059049;28;20383;-83
2021/07/01 08:11:23;;;;;;;18.75;6.85;;;13.50;99.90;;;;;;5056878;28;20403;-84
2021/07/01 08:13:56;;;;;;;16.77;7.07;;;13.50;99.90;;;;;;5054295;28;20474;-82
2021/07/01 08:16:24;;;;;;;17.85;6.50;;;13.50;99.90;;;;;;5056485;28;20525;-84
2021/07/01 08:18:52;;;;;;;16.60;7.00;;;13.40;99.90;;;;;;5052224;28;20830;-83
2021/07/01 08:21:20;;;;;;;17.65;6.93;;;13.40;99.90;;;;;;5057328;28;20755;-84
2021/07/01 08:23:47;;;;;;;13.90;6.30;;;13.30;99.90;;;;;;5051856;28;20406;-83
2021/07/01 08:26:15;;;;;;;19.38;6.95;;;13.30;99.90;;;;;;5066437;28;20388;-83
2021/07/01 08:28:42;;;;;;;21.40;7.00;;;13.30;99.90;;;;;;5066695;28;20418;-83
2021/07/01 08:31:14;;;;;;;22.02;7.68;;;13.30;99.90;;;;;;5053104;28;20434;-84
2021/07/01 08:33:43;;;;;;;18.60;7.82;;;13.20;99.90;;;;;;5051117;28;20380;-84
2021/07/01 08:36:19;;;;;;;16.02;7.82;;;13.10;99.90;;;;;;5051219;28;20820;-84
2021/07/01 08:38:49;;;;;;;14.73;7.35;;;13.20;99.90;;;;;;5050822;28;20408;-85
2021/07/01 08:41:22;;;;;;;16.00;7.60;;;13.20;99.90;;;;;;5065250;28;20496;-84
2021/07/01 08:44:00;;;;;;;18.73;8.10;;;13.20;99.90;;;;;;5054234;28;20471;-85
2021/07/01 08:46:46;;;;;;;16.55;7.85;;;13.20;99.90;;;;;;5059943;28;20374;-84
2021/07/01 08:49:16;;;;;;;16.60;8.30;;;13.20;99.90;;;;;;5070637;28;20378;-83
2021/07/01 08:51:46;;;;;;;18.27;9.32;;;13.20;99.90;;;;;;5059295;28;20374;-84
2021/07/01 08:54:33;;;;;;;20.13;9.07;;;13.20;99.90;;;;;;5069588;28;20390;-83
2021/07/01 08:57:01;;;;;;;18.57;10.17;;;13.10;99.90;;;;;;5050710;28;20388;-86
2021/07/01 08:59:58;;;;;;;25.58;11.50;;;13.20;99.90;;;;;;5058858;28;20909;-86
2021/07/01 09:02:34;;;;;;;21.77;12.47;;;13.20;99.90;;;;;;5058916;28;20870;-84
2021/07/01 09:05:07;;;;;;;23.10;13.52;;;13.10;99.90;;;;;;5061428;28;20406;-84
2021/07/01 09:07:37;;;;;;;20.52;14.43;;;13.10;99.90;;;;;;5088109;28;20443;-84
2021/07/01 09:10:10;;;;;;;24.65;14.63;;;13.10;99.90;;;;;;5053025;28;20446;-87
2021/07/01 09:12:42;;;;;;;21.52;15.02;;;13.10;99.90;;;;;;5062908;28;20374;-83
2021/07/01 09:15:10;;;;;;;26.30;15.57;;;13.10;99.90;;;;;;5060970;28;20395;-84
2021/07/01 09:17:47;;;;;;;24.38;14.88;;;13.10;99.90;;;;;;5068159;28;20413;-82
2021/07/01 09:20:20;;;;;;;20.52;15.40;;;13.10;99.90;;;;;;5068285;28;20394;-83
2021/07/01 09:22:56;;;;;;;21.40;14.90;;;13.10;99.90;;;;;;5060320;28;20380;-84
2021/07/01 09:25:24;;;;;;;23.98;16.30;;;13.10;99.90;;;;;;5056899;28;20483;-84
2021/07/01 09:27:54;;;;;;;23.70;16.17;;;13.10;99.90;;;;;;5061379;28;20465;-84
2021/07/01 09:30:27;;;;;;;21.40;14.93;;;13.10;99.90;;;;;;5073817;28;20390;-85
2021/07/01 09:32:59;;;;;;;22.83;15.67;;;13.20;99.90;;;;;;5059630;28;20431;-83
2021/07/01 09:35:27;;;;;;;25.33;17.42;;;13.10;99.90;;;;;;5055902;28;20498;-83
2021/07/01 09:37:55;;;;;;;40.67;26.70;;;13.00;99.90;;;;;;5063772;28;21219;-83
2021/07/01 09:40:25;;;;;;;29.93;20.77;;;12.90;99.90;;;;;;5061435;28;20406;-84
2021/07/01 09:42:59;;;;;;;32.42;21.13;;;12.80;99.90;;;;;;5071545;28;20417;-85
2021/07/01 09:45:27;;;;;;;43.53;23.75;;;12.80;99.90;;;;;;5066960;28;20823;-84
2021/07/01 09:48:08;;;;;;;38.35;23.67;;;12.70;99.90;;;;;;5070387;28;20375;-82
2021/07/01 09:50:49;;;;;;;34.53;21.58;;;12.60;99.90;;;;;;5058283;28;20874;-84
2021/07/01 09:53:33;;;;;;;29.35;21.02;;;12.60;99.90;;;;;;5062598;28;20381;-84
2021/07/01 09:56:05;;;;;;;28.60;20.03;;;12.70;99.90;;;;;;5058128;28;20829;-84
2021/07/01 09:58:43;;;;;;;34.35;21.50;;;12.80;99.90;;;;;;5064152;28;20632;-84
2021/07/01 10:01:26;;;;;;;38.10;23.25;;;12.70;99.90;;;;;;5062263;28;20390;-85
2021/07/01 10:04:01;;;;;;;28.80;21.25;;;12.70;99.90;;;;;;5049968;28;20391;-84
2021/07/01 10:06:29;;;;;;;32.97;21.98;;;12.70;99.90;;;;;;5046143;28;20378;-85
2021/07/01 10:08:56;;;;;;;38.30;22.30;;;12.60;99.90;;;;;;5050627;28;20387;-84
2021/07/01 10:11:42;;;;;;;28.48;21.05;;;12.60;99.90;;;;;;5053745;28;20384;-85
2021/07/01 10:14:15;;;;;;;31.83;21.95;;;12.70;99.90;;;;;;5053813;28;20398;-85
2021/07/01 10:16:43;;;;;;;33.47;21.75;;;12.70;99.90;;;;;;5054050;28;20401;-85
2021/07/01 10:19:25;;;;;;;29.90;20.90;;;12.70;99.90;;;;;;5057562;28;20387;-86
2021/07/01 10:22:06;;;;;;;27.42;20.92;;;12.80;99.90;;;;;;5076697;28;20502;-84
2021/07/01 10:24:39;;;;;;;23.90;19.65;;;12.80;99.90;;;;;;5066292;28;20464;-85
2021/07/01 10:27:07;;;;;;;25.20;19.55;;;12.80;99.90;;;;;;5061915;28;20924;-83
2021/07/01 10:29:39;;;;;;;28.97;20.30;;;12.80;99.90;;;;;;5056799;28;20398;-84
2021/07/01 10:32:09;;;;;;;27.75;19.90;;;12.70;99.90;;;;;;5060120;28;21044;-84
2021/07/01 10:34:52;;;;;;;22.25;17.65;;;12.70;99.90;;;;;;5064790;28;20498;-84
2021/07/01 10:37:22;;;;;;;23.90;18.08;;;12.70;99.90;;;;;;5063957;28;20442;-83
2021/07/01 10:39:51;;;;;;;21.27;16.63;;;12.70;99.90;;;;;;5062123;28;20731;-83
2021/07/01 10:42:18;;;;;;;20.80;16.75;;;12.70;99.90;;;;;;5046838;28;20400;-83
2021/07/01 10:44:46;;;;;;;22.30;16.88;;;12.70;99.90;;;;;;5055744;28;20382;-85
2021/07/01 10:47:31;;;;;;;20.48;16.55;;;12.60;99.90;;;;;;5067071;28;20886;-84
2021/07/01 10:50:00;;;;;;;22.27;16.33;;;12.60;99.90;;;;;;5058063;28;20987;-83
2021/07/01 10:52:41;;;;;;;21.38;17.08;;;12.60;99.90;;;;;;5059940;28;20473;-84
2021/07/01 10:55:09;;;;;;;20.15;17.25;;;12.60;99.90;;;;;;5065237;28;20398;-83
2021/07/01 10:57:45;;;;;;;19.73;16.95;;;12.50;99.90;;;;;;5064358;28;21206;-84
2021/07/01 11:00:12;;;;;;;18.05;15.45;;;12.50;99.90;;;;;;5056934;28;20736;-83
2021/07/01 11:02:50;;;;;;;18.17;15.05;;;12.50;99.90;;;;;;5045322;28;21128;-83
2021/07/01 11:05:18;;;;;;;19.67;16.35;;;12.40;99.90;;;;;;5045526;28;20388;-82
2021/07/01 11:07:49;;;;;;;20.98;16.65;;;12.40;99.90;;;;;;5045589;28;20384;-84
2021/07/01 11:10:36;;;;;;;26.85;17.52;;;12.40;99.90;;;;;;5053717;28;20396;-83
2021/07/01 11:13:10;;;;;;;24.20;18.02;;;12.30;99.90;;;;;;5064243;28;20391;-83
2021/07/01 11:16:03;;;;;;;30.20;22.05;;;12.20;99.90;;;;;;5049549;28;20426;-85
2021/07/01 11:18:41;;;;;;;31.80;23.67;;;12.10;99.90;;;;;;5049494;28;20457;-83
2021/07/01 11:21:18;;;;;;;34.55;25.70;;;12.10;99.90;;;;;;5049616;28;20376;-84
2021/07/01 11:23:48;;;;;;;30.77;23.73;;;12.10;99.90;;;;;;5049522;28;20387;-83
2021/07/01 11:26:30;;;;;;;21.88;17.85;;;12.20;99.90;;;;;;5049694;28;20895;-83
2021/07/01 11:28:59;;;;;;;20.37;17.53;;;12.20;99.90;;;;;;5049891;28;20380;-83
2021/07/01 11:31:36;;;;;;;23.90;17.98;;;12.20;99.90;;;;;;5064648;28;20445;-84
2021/07/01 11:34:05;;;;;;;27.88;19.35;;;12.20;99.90;;;;;;5069005;28;20426;-83
2021/07/01 11:36:32;;;;;;;20.40;16.92;;;12.10;99.90;;;;;;5068137;28;20370;-84
2021/07/01 11:39:12;;;;;;;20.10;16.63;;;12.10;99.90;;;;;;5068998;28;20876;-83
2021/07/01 11:41:40;;;;;;;20.20;16.70;;;12.20;99.90;;;;;;5064916;28;20892;-84
2021/07/01 11:44:10;;;;;;;26.47;18.77;;;12.10;99.90;;;;;;5056097;28;20402;-82
2021/07/01 11:46:37;;;;;;;21.63;17.33;;;12.10;99.90;;;;;;5048938;28;20376;-83
2021/07/01 11:49:09;;;;;;;25.90;18.70;;;12.10;99.90;;;;;;5050798;28;20484;-83
2021/07/01 11:51:38;;;;;;;22.42;17.73;;;12.20;99.90;;;;;;5054589;28;20470;-84
2021/07/01 11:54:06;;;;;;;21.65;17.45;;;12.20;99.90;;;;;;5057298;28;20387;-83
2021/07/01 11:59:30;;;;;;;23.67;19.67;;;12.20;99.90;;;;;;5052770;28;20789;-84
2021/07/01 12:02:02;;;;;;;24.10;18.80;;;12.20;99.90;;;;;;5056753;28;20384;-84
2021/07/01 12:04:34;;;;;;;23.48;18.85;;;12.20;99.90;;;;;;5071992;28;20463;-83
2021/07/01 12:07:26;;;;;;;26.90;20.17;;;12.20;99.90;;;;;;5071868;28;20787;-83
2021/07/01 12:09:55;;;;;;;29.58;20.23;;;12.20;99.90;;;;;;5071905;28;20444;-83
2021/07/01 12:12:30;;;;;;;25.85;20.77;;;12.20;99.90;;;;;;5066204;28;20376;-83
2021/07/01 12:15:12;;;;;;;27.77;20.25;;;12.20;99.90;;;;;;5071478;28;20390;-82
2021/07/01 12:18:16;;;;;;;26.67;19.63;;;12.20;99.90;;;;;;5071423;28;20386;-83
2021/07/01 12:20:52;;;;;;;27.98;20.65;;;12.20;99.90;;;;;;5071316;28;20412;-83
2021/07/01 12:23:25;;;;;;;26.77;20.38;;;12.20;99.90;;;;;;5063732;28;20441;-83
2021/07/01 12:25:57;;;;;;;27.15;20.63;;;12.20;99.90;;;;;;5050993;28;20384;-83
2021/07/01 12:28:29;;;;;;;27.47;19.93;;;12.20;99.90;;;;;;5051351;28;20360;-83
2021/07/01 12:31:07;;;;;;;30.25;20.63;;;12.20;99.90;;;;;;5051699;28;20456;-84
2021/07/01 12:34:00;;;;;;;31.42;21.45;;;12.10;99.90;;;;;;5052320;28;20379;-83
2021/07/01 12:36:45;;;;;;;28.30;20.10;;;12.10;99.90;;;;;;5051336;28;20375;-83
2021/07/01 12:39:18;;;;;;;29.15;19.95;;;12.10;99.90;;;;;;5060720;28;20433;-83
2021/07/01 12:41:49;;;;;;;29.17;20.10;;;12.10;99.90;;;;;;5065964;28;20389;-83
2021/07/01 12:44:18;;;;;;;28.08;20.13;;;12.00;99.90;;;;;;5051999;28;20396;-84
2021/07/01 12:46:46;;;;;;;28.00;20.43;;;12.00;99.90;;;;;;5051932;28;20376;-84
2021/07/01 12:49:21;;;;;;;31.13;20.15;;;12.00;99.90;;;;;;5054793;28;20392;-83
2021/07/01 12:51:58;;;;;;;29.60;19.80;;;11.90;99.90;;;;;;5055586;28;20389;-83
2021/07/01 12:54:25;;;;;;;37.47;25.00;;;11.90;99.90;;;;;;5069370;28;20728;-83
2021/07/01 12:56:56;;;;;;;32.63;23.08;;;11.80;99.90;;;;;;5066990;28;20427;-83
2021/07/01 12:59:33;;;;;;;31.92;23.48;;;11.80;99.90;;;;;;5071189;28;20386;-84